Time;durP1;ratioP1;P1;durP2;ratioP2;P2;SDS_P1;SDS_P2;PMS_P1;PMS_P2;Temp;Humidity;BMP_temperature;BMP_pressure;BME280_temperature;BME280_humidity;BME280_pressure;Samples;Min_cycle;Max_cycle;Signal;HPM_P1;HPM_P2
2022/05/04 00:01:33;;;;;;;1999.90;999.90;;;11.10;99.90;;;;;;4931566;28;20177;-73
2022/05/04 00:03:59;;;;;;;1999.90;999.90;;;11.10;99.90;;;;;;4931539;28;20416;-72
2022/05/04 00:06:26;;;;;;;1999.90;999.90;;;11.10;99.90;;;;;;4931523;28;20207;-72
2022/05/04 00:08:52;;;;;;;1999.90;999.90;;;11.10;99.90;;;;;;4931629;28;20412;-72
2022/05/04 00:11:17;;;;;;;1999.90;999.90;;;11.00;99.90;;;;;;4931559;28;20413;-73
2022/05/04 00:13:43;;;;;;;1999.90;999.90;;;11.00;99.90;;;;;;4931378;28;20209;-73
2022/05/04 00:16:09;;;;;;;1999.90;999.90;;;10.90;99.90;;;;;;4931226;28;20172;-72
2022/05/04 00:18:34;;;;;;;1999.90;999.90;;;10.90;99.90;;;;;;4931513;28;20172;-72
2022/05/04 00:21:00;;;;;;;1999.90;999.90;;;10.80;99.90;;;;;;4931900;28;20203;-72
2022/05/04 00:23:26;;;;;;;1999.90;999.90;;;10.80;99.90;;;;;;4934504;28;20218;-72
2022/05/04 00:25:52;;;;;;;1999.90;999.90;;;10.70;99.90;;;;;;4934336;28;20241;-73
2022/05/04 00:28:18;;;;;;;1999.90;999.90;;;10.70;99.90;;;;;;4934693;28;20172;-72
2022/05/04 00:30:44;;;;;;;1999.90;999.90;;;10.70;99.90;;;;;;4934523;28;20408;-73
2022/05/04 00:33:10;;;;;;;1999.90;999.90;;;10.70;99.90;;;;;;4934629;28;20426;-73
2022/05/04 00:35:35;;;;;;;1999.90;999.90;;;10.70;99.90;;;;;;4934359;28;20802;-73
2022/05/04 00:38:02;;;;;;;1999.90;999.90;;;10.60;99.90;;;;;;4934443;28;20485;-73
2022/05/04 00:40:27;;;;;;;1999.90;999.90;;;10.70;99.90;;;;;;4934566;28;20832;-73
2022/05/04 00:42:53;;;;;;;1999.90;999.90;;;10.70;99.90;;;;;;4934349;28;20471;-73
2022/05/04 00:45:18;;;;;;;1999.90;999.90;;;10.60;99.90;;;;;;4933519;28;20226;-73
2022/05/04 00:47:44;;;;;;;1999.90;999.90;;;10.60;99.90;;;;;;4934372;28;20243;-73
2022/05/04 00:50:10;;;;;;;1999.90;999.90;;;10.50;99.90;;;;;;4934360;28;20176;-73
2022/05/04 00:52:37;;;;;;;1999.90;999.90;;;10.40;99.90;;;;;;4934313;28;20213;-73
2022/05/04 00:55:06;;;;;;;1999.90;999.90;;;10.40;99.90;;;;;;4933973;28;20443;-73
2022/05/04 01:00:20;;;;;;;1999.90;999.90;;;10.40;99.90;;;;;;4934180;29;20415;-73
2022/05/04 01:02:45;;;;;;;1999.90;999.90;;;10.30;99.90;;;;;;4934191;28;20441;-73
2022/05/04 01:05:11;;;;;;;1999.90;999.90;;;10.20;99.90;;;;;;4933763;28;20463;-73
2022/05/04 01:07:41;;;;;;;1999.90;999.90;;;10.20;99.90;;;;;;4934202;28;20532;-73
2022/05/04 01:10:08;;;;;;;1999.90;999.90;;;10.30;99.90;;;;;;4934070;28;20168;-73
2022/05/04 01:12:33;;;;;;;1999.90;999.90;;;10.20;99.90;;;;;;4933877;28;20434;-73
2022/05/04 01:15:00;;;;;;;1999.90;999.90;;;10.20;99.90;;;;;;4933644;28;20408;-73
2022/05/04 01:17:29;;;;;;;1999.90;999.90;;;10.20;99.90;;;;;;4934019;28;20269;-73
2022/05/04 01:19:57;;;;;;;1999.90;999.90;;;10.10;99.90;;;;;;4934002;28;20442;-73
2022/05/04 01:22:24;;;;;;;1999.90;999.90;;;10.10;99.90;;;;;;4933774;28;20786;-73
2022/05/04 01:24:50;;;;;;;1999.90;999.90;;;10.00;99.90;;;;;;4933529;28;20423;-73
2022/05/04 01:27:15;;;;;;;1999.90;999.90;;;9.90;99.90;;;;;;4934212;28;20729;-74
2022/05/04 01:29:41;;;;;;;1999.90;999.90;;;9.90;99.90;;;;;;4934948;28;20204;-73
2022/05/04 01:32:07;;;;;;;1999.90;999.90;;;9.80;99.90;;;;;;4934715;28;20247;-73
2022/05/04 01:34:32;;;;;;;1999.90;999.90;;;9.70;99.90;;;;;;4933977;28;20172;-73
2022/05/04 01:36:58;;;;;;;1999.90;999.90;;;9.70;99.90;;;;;;4934581;28;20405;-73
2022/05/04 01:39:23;;;;;;;1999.90;999.90;;;9.70;99.90;;;;;;4934510;28;20175;-73
2022/05/04 01:44:35;;;;;;;1999.90;999.90;;;9.70;99.90;;;;;;4934232;29;20722;-73
2022/05/04 01:47:01;;;;;;;1999.90;999.90;;;9.60;99.90;;;;;;4934441;28;20445;-73
2022/05/04 01:49:27;;;;;;;1999.90;999.90;;;9.60;99.90;;;;;;4934816;28;21173;-73
2022/05/04 01:51:53;;;;;;;1999.90;999.90;;;9.50;99.90;;;;;;4934581;28;20432;-73
2022/05/04 01:54:19;;;;;;;1999.90;999.90;;;9.50;99.90;;;;;;4934393;28;20438;-73
2022/05/04 01:56:45;;;;;;;1999.90;999.90;;;9.50;99.90;;;;;;4934186;28;20917;-73
2022/05/04 01:59:11;;;;;;;1999.90;999.90;;;9.50;99.90;;;;;;4933242;28;20422;-73
2022/05/04 02:01:40;;;;;;;1999.90;999.90;;;9.50;99.90;;;;;;4933353;28;20179;-73
2022/05/04 02:04:06;;;;;;;1999.90;999.90;;;9.50;99.90;;;;;;4933067;28;20197;-72
2022/05/04 02:06:32;;;;;;;1999.90;999.90;;;9.50;99.90;;;;;;4933102;28;20924;-72
2022/05/04 02:08:58;;;;;;;1999.90;999.90;;;9.40;99.90;;;;;;4933117;28;20403;-73
2022/05/04 02:11:24;;;;;;;1999.90;999.90;;;9.50;99.90;;;;;;4933178;28;20438;-73
2022/05/04 02:13:50;;;;;;;1999.90;999.90;;;9.50;99.90;;;;;;4933119;28;20540;-72
2022/05/04 02:16:16;;;;;;;1999.90;999.90;;;9.50;99.90;;;;;;4932852;28;20461;-72
2022/05/04 02:18:42;;;;;;;1999.90;999.90;;;9.50;99.90;;;;;;4933086;28;20425;-72
2022/05/04 02:21:09;;;;;;;1999.90;999.90;;;9.50;99.90;;;;;;4932928;28;20179;-72
2022/05/04 02:23:34;;;;;;;1999.90;999.90;;;9.50;99.90;;;;;;4932866;28;20454;-73
2022/05/04 02:26:00;;;;;;;1999.90;999.90;;;9.50;99.90;;;;;;4932648;28;20990;-73
2022/05/04 02:28:25;;;;;;;1999.90;999.90;;;9.40;99.90;;;;;;4932996;28;20186;-73
2022/05/04 02:30:51;;;;;;;1999.90;999.90;;;9.30;99.90;;;;;;4998780;28;20178;-73
2022/05/04 02:33:16;;;;;;;1999.90;999.90;;;9.20;99.90;;;;;;4932779;28;20191;-73
2022/05/04 02:38:27;;;;;;;1999.90;999.90;;;9.20;99.90;;;;;;4932791;29;20727;-73
2022/05/04 02:40:52;;;;;;;1999.90;999.90;;;9.30;99.90;;;;;;4932689;28;20414;-73
2022/05/04 02:43:18;;;;;;;1999.90;999.90;;;9.30;99.90;;;;;;4932790;28;20528;-73
2022/05/04 02:45:44;;;;;;;1999.90;999.90;;;9.20;99.90;;;;;;4996962;28;20268;-73
2022/05/04 02:48:09;;;;;;;1999.90;999.90;;;9.30;99.90;;;;;;4932499;28;20604;-73
2022/05/04 02:50:36;;;;;;;1999.90;999.90;;;9.30;99.90;;;;;;4932573;28;20176;-73
2022/05/04 02:53:02;;;;;;;1999.90;999.90;;;9.20;99.90;;;;;;4932526;28;20197;-73
2022/05/04 02:55:27;;;;;;;1999.90;999.90;;;9.10;99.90;;;;;;4932281;28;20441;-73
2022/05/04 02:57:53;;;;;;;1999.90;999.90;;;9.00;99.90;;;;;;4932456;28;20833;-73
2022/05/04 03:00:19;;;;;;;1999.90;999.90;;;8.90;99.90;;;;;;4932384;28;20178;-73
2022/05/04 03:02:45;;;;;;;1999.90;999.90;;;8.80;99.90;;;;;;4932353;28;20194;-73
2022/05/04 03:05:12;;;;;;;1999.90;999.90;;;8.70;99.90;;;;;;4932027;28;20516;-73
2022/05/04 03:07:38;;;;;;;1999.90;999.90;;;8.70;99.90;;;;;;4932358;28;20169;-73
2022/05/04 03:10:04;;;;;;;1999.90;999.90;;;8.60;99.90;;;;;;4932386;28;20777;-73
2022/05/04 03:12:30;;;;;;;1999.90;999.90;;;8.60;99.90;;;;;;4932320;28;20426;-73
2022/05/04 03:14:56;;;;;;;1999.90;999.90;;;8.70;99.90;;;;;;4931982;28;20423;-73
2022/05/04 03:17:22;;;;;;;1999.90;999.90;;;8.70;99.90;;;;;;4932159;28;20443;-73
2022/05/04 03:19:48;;;;;;;1999.90;999.90;;;8.70;99.90;;;;;;4932184;28;20168;-73
2022/05/04 03:22:14;;;;;;;1999.90;999.90;;;8.70;99.90;;;;;;4932028;28;20434;-73
2022/05/04 03:24:39;;;;;;;1999.90;999.90;;;8.60;99.90;;;;;;4931797;28;20187;-72
2022/05/04 03:27:06;;;;;;;1999.90;999.90;;;8.60;99.90;;;;;;4932240;28;20182;-72
2022/05/04 03:29:32;;;;;;;1999.90;999.90;;;8.50;99.90;;;;;;4932165;28;20251;-72
2022/05/04 03:31:57;;;;;;;1999.90;999.90;;;8.40;99.90;;;;;;4932072;28;20983;-72
2022/05/04 03:34:23;;;;;;;1999.90;999.90;;;8.40;99.90;;;;;;4931929;28;20177;-72
2022/05/04 03:36:49;;;;;;;1999.90;999.90;;;8.50;99.90;;;;;;4932094;28;20197;-72
2022/05/04 03:39:15;;;;;;;1999.90;999.90;;;8.60;99.90;;;;;;4932055;28;20706;-73
2022/05/04 03:41:40;;;;;;;1999.90;999.90;;;8.60;99.90;;;;;;4931942;28;20584;-73
2022/05/04 03:44:06;;;;;;;1999.90;999.90;;;8.70;99.90;;;;;;4931596;28;20418;-73
2022/05/04 03:46:45;;;;;;;1999.90;999.90;;;8.60;99.90;;;;;;4931735;28;20210;-73
2022/05/04 03:49:12;;;;;;;1999.90;999.90;;;8.70;99.90;;;;;;4931849;28;20930;-73
2022/05/04 03:54:08;;;;;;;1999.90;999.90;;;8.60;99.90;;;;;;4990867;28;20464;-69
2022/05/04 03:56:34;;;;;;;1999.90;999.90;;;8.70;99.90;;;;;;4993935;28;20410;-69
2022/05/04 03:59:01;;;;;;;1999.90;999.90;;;8.70;99.90;;;;;;4996281;28;20400;-68
2022/05/04 04:01:26;;;;;;;1999.90;999.90;;;8.70;99.90;;;;;;4996232;28;20457;-68
2022/05/04 04:03:52;;;;;;;1999.90;999.90;;;8.70;99.90;;;;;;4996254;28;20911;-68
2022/05/04 04:06:18;;;;;;;1999.90;999.90;;;8.60;99.90;;;;;;4995817;28;20212;-68
2022/05/04 04:08:43;;;;;;;1999.90;999.90;;;8.60;99.90;;;;;;4996048;28;20215;-68
2022/05/04 04:11:10;;;;;;;1999.90;999.90;;;8.60;99.90;;;;;;4996054;28;20173;-68
2022/05/04 04:13:37;;;;;;;1999.90;999.90;;;8.60;99.90;;;;;;4995941;28;20522;-68
2022/05/04 04:16:02;;;;;;;1999.90;999.90;;;8.70;99.90;;;;;;4995827;28;20422;-68
2022/05/04 04:18:28;;;;;;;1999.90;999.90;;;8.80;99.90;;;;;;4996058;28;20412;-68
2022/05/04 04:23:39;;;;;;;1999.90;999.90;;;8.80;99.90;;;;;;4996008;28;20265;-68
2022/05/04 04:26:06;;;;;;;1999.90;999.90;;;8.80;99.90;;;;;;4995324;28;20478;-68
2022/05/04 04:28:34;;;;;;;1999.90;999.90;;;8.90;99.90;;;;;;4995716;28;20804;-68
2022/05/04 04:31:00;;;;;;;1999.90;999.90;;;8.90;99.90;;;;;;4995611;28;20412;-68
2022/05/04 04:33:29;;;;;;;1999.90;999.90;;;8.80;99.90;;;;;;4995541;28;20431;-68
2022/05/04 04:35:59;;;;;;;1999.90;999.90;;;8.80;99.90;;;;;;4995338;28;20450;-68
2022/05/04 04:38:28;;;;;;;1999.90;999.90;;;8.80;99.90;;;;;;4995535;28;20426;-68
2022/05/04 04:40:54;;;;;;;1999.90;999.90;;;8.80;99.90;;;;;;4995410;28;20416;-68
2022/05/04 04:43:19;;;;;;;1999.90;999.90;;;8.80;99.90;;;;;;4995381;28;20419;-67
2022/05/04 04:45:46;;;;;;;1999.90;999.90;;;8.80;99.90;;;;;;4995064;28;20456;-68
2022/05/04 04:48:12;;;;;;;1999.90;999.90;;;8.80;99.90;;;;;;4995390;28;20582;-68
2022/05/04 04:50:38;;;;;;;1999.90;999.90;;;8.90;99.90;;;;;;4995357;28;20420;-68
2022/05/04 04:53:04;;;;;;;1999.90;999.90;;;8.90;99.90;;;;;;4995052;28;20452;-68
2022/05/04 04:55:29;;;;;;;1999.90;999.90;;;8.90;99.90;;;;;;4994929;28;20184;-68
2022/05/04 04:57:55;;;;;;;1999.90;999.90;;;9.00;99.90;;;;;;4995488;28;20181;-68
2022/05/04 05:00:21;;;;;;;1999.90;999.90;;;9.10;99.90;;;;;;4995286;28;20231;-68
2022/05/04 05:02:47;;;;;;;1999.90;999.90;;;9.20;99.90;;;;;;4995039;28;20191;-68
2022/05/04 05:05:13;;;;;;;1999.90;999.90;;;9.20;99.90;;;;;;4994617;28;20460;-68
2022/05/04 05:07:38;;;;;;;1999.90;999.90;;;9.10;99.90;;;;;;4994007;28;20407;-68
2022/05/04 05:10:05;;;;;;;1999.90;999.90;;;9.00;99.90;;;;;;4994997;28;20169;-67
2022/05/04 05:12:32;;;;;;;1999.90;999.90;;;8.90;99.90;;;;;;4995090;28;20200;-67
2022/05/04 05:17:43;;;;;;;1999.90;999.90;;;9.00;99.90;;;;;;4995118;28;20454;-68
2022/05/04 05:20:09;;;;;;;1999.90;999.90;;;9.00;99.90;;;;;;4994747;28;20419;-68
2022/05/04 05:22:35;;;;;;;1999.90;999.90;;;9.00;99.90;;;;;;4994622;28;20223;-67
2022/05/04 05:25:01;;;;;;;1999.90;999.90;;;9.10;99.90;;;;;;4994392;28;20483;-68
2022/05/04 05:27:32;;;;;;;1999.90;999.90;;;9.10;99.90;;;;;;4994682;28;20177;-68
2022/05/04 05:29:57;;;;;;;1999.90;999.90;;;9.00;99.90;;;;;;4994753;28;20173;-68
2022/05/04 05:32:24;;;;;;;1999.90;999.90;;;9.00;99.90;;;;;;4994518;28;20848;-68
2022/05/04 05:34:50;;;;;;;1999.90;999.90;;;9.10;99.90;;;;;;4994270;28;20173;-67
2022/05/04 05:37:16;;;;;;;1999.90;999.90;;;9.10;99.90;;;;;;4994374;28;20412;-68
2022/05/04 05:39:42;;;;;;;1999.90;999.90;;;9.00;99.90;;;;;;4994393;28;20962;-68
2022/05/04 05:42:09;;;;;;;1999.90;999.90;;;9.00;99.90;;;;;;4994120;28;20512;-68
2022/05/04 05:44:34;;;;;;;1999.90;999.90;;;9.00;99.90;;;;;;4993574;28;20414;-68
2022/05/04 05:47:01;;;;;;;1999.90;999.90;;;9.00;99.90;;;;;;4993927;28;20462;-67
2022/05/04 05:49:27;;;;;;;1999.90;999.90;;;9.00;99.90;;;;;;4994142;28;20408;-67
2022/05/04 05:51:53;;;;;;;1999.90;999.90;;;9.00;99.90;;;;;;4993934;28;20412;-67
2022/05/04 05:54:19;;;;;;;1999.90;999.90;;;9.00;99.90;;;;;;4993766;28;20403;-69
2022/05/04 05:56:44;;;;;;;1999.90;999.90;;;9.10;99.90;;;;;;4993789;28;20166;-67
2022/05/04 05:59:11;;;;;;;1999.90;999.90;;;9.00;99.90;;;;;;4994043;28;20182;-68
2022/05/04 06:01:37;;;;;;;1999.90;999.90;;;9.10;99.90;;;;;;4993979;28;20187;-68
2022/05/04 06:04:03;;;;;;;1999.90;999.90;;;9.10;99.90;;;;;;4993492;28;20436;-68
2022/05/04 06:06:28;;;;;;;1999.90;999.90;;;9.20;99.90;;;;;;4993955;28;20204;-68
2022/05/04 06:08:54;;;;;;;1999.90;999.90;;;9.20;99.90;;;;;;4993917;28;20897;-68
2022/05/04 06:11:19;;;;;;;1999.90;999.90;;;9.20;99.90;;;;;;4993821;28;20199;-68
2022/05/04 06:13:45;;;;;;;1999.90;999.90;;;9.30;99.90;;;;;;4993764;28;20200;-68
2022/05/04 06:16:11;;;;;;;1999.90;999.90;;;9.20;99.90;;;;;;4993533;28;20173;-68
2022/05/04 06:18:36;;;;;;;1999.90;999.90;;;9.20;99.90;;;;;;4993517;28;20292;-68
2022/05/04 06:21:02;;;;;;;1999.90;999.90;;;9.30;99.90;;;;;;4993539;28;20259;-68
2022/05/04 06:23:28;;;;;;;1999.90;999.90;;;9.20;99.90;;;;;;4993491;28;20196;-68
2022/05/04 06:25:53;;;;;;;1999.90;999.90;;;9.30;99.90;;;;;;4993281;28;20684;-68
2022/05/04 06:28:19;;;;;;;1999.90;999.90;;;9.30;99.90;;;;;;4993580;28;20182;-70
2022/05/04 06:36:13;;;;;;;1999.90;999.90;;;9.70;99.90;;;;;;4993358;28;20414;-70
2022/05/04 06:38:38;;;;;;;1999.90;999.90;;;9.80;99.90;;;;;;4993260;28;20886;-70
2022/05/04 06:41:05;;;;;;;1999.90;999.90;;;9.80;99.90;;;;;;4993398;28;20181;-68
2022/05/04 06:43:32;;;;;;;1999.90;999.90;;;10.00;99.90;;;;;;4993060;28;20238;-68
2022/05/04 06:45:57;;;;;;;1999.90;999.90;;;10.00;99.90;;;;;;4993086;28;20483;-68
2022/05/04 06:48:23;;;;;;;1999.90;999.90;;;10.10;99.90;;;;;;4993087;28;20409;-68
2022/05/04 06:50:49;;;;;;;1999.90;999.90;;;10.10;99.90;;;;;;4993143;28;20495;-67
2022/05/04 06:53:14;;;;;;;1999.90;999.90;;;10.20;99.90;;;;;;4992875;28;20216;-68
2022/05/04 06:55:40;;;;;;;1999.90;999.90;;;10.30;99.90;;;;;;4992695;28;20177;-68
2022/05/04 06:58:05;;;;;;;1999.90;999.90;;;10.40;99.90;;;;;;4992982;28;20172;-68
2022/05/04 07:00:31;;;;;;;1999.90;999.90;;;10.50;99.90;;;;;;4992884;28;20185;-68
2022/05/04 07:02:57;;;;;;;1999.90;999.90;;;10.60;99.90;;;;;;4992898;28;20309;-68
2022/05/04 07:05:22;;;;;;;1999.90;999.90;;;10.60;99.90;;;;;;4992524;28;20201;-68
2022/05/04 07:07:48;;;;;;;1999.90;999.90;;;10.60;99.90;;;;;;4992853;28;20216;-68
2022/05/04 07:10:14;;;;;;;1999.90;999.90;;;10.70;99.90;;;;;;4992861;28;20610;-67
2022/05/04 07:12:39;;;;;;;1999.90;999.90;;;10.70;99.90;;;;;;4992627;28;20925;-68
2022/05/04 07:15:05;;;;;;;1999.90;999.90;;;10.80;99.90;;;;;;4992422;28;20176;-67
2022/05/04 07:17:31;;;;;;;1999.90;999.90;;;10.90;99.90;;;;;;4992647;28;20188;-68
2022/05/04 07:19:57;;;;;;;1999.90;999.90;;;11.10;99.90;;;;;;4992693;28;20655;-68
2022/05/04 07:22:23;;;;;;;1999.90;999.90;;;11.30;99.90;;;;;;4992530;28;20467;-68
2022/05/04 07:24:48;;;;;;;1999.90;999.90;;;11.50;99.90;;;;;;4992426;28;20165;-68
2022/05/04 07:27:14;;;;;;;1999.90;999.90;;;11.50;99.90;;;;;;4992607;28;20170;-68
2022/05/04 07:29:42;;;;;;;1999.90;999.90;;;11.60;99.90;;;;;;4992650;28;20216;-68
2022/05/04 07:32:08;;;;;;;1999.90;999.90;;;11.60;99.90;;;;;;4991997;28;20199;-68
2022/05/04 07:34:33;;;;;;;1999.90;999.90;;;11.50;99.90;;;;;;4992219;28;20471;-67
2022/05/04 07:36:59;;;;;;;1999.90;999.90;;;11.70;99.90;;;;;;4992720;28;20170;-67
2022/05/04 07:42:21;;;;;;;1999.90;999.90;;;11.90;99.90;;;;;;4992776;28;20913;-68
2022/05/04 07:45:01;;;;;;;1999.90;999.90;;;12.10;99.90;;;;;;4992556;28;20401;-68
2022/05/04 07:47:29;;;;;;;1999.90;999.90;;;12.40;99.90;;;;;;4992655;28;20505;-68
2022/05/04 07:49:56;;;;;;;1999.90;999.90;;;12.50;99.90;;;;;;4992548;28;20417;-68
2022/05/04 07:52:22;;;;;;;1999.90;999.90;;;12.60;99.90;;;;;;4992245;28;20444;-68
2022/05/04 07:54:48;;;;;;;1999.90;999.90;;;12.50;99.90;;;;;;4992371;28;20425;-68
2022/05/04 07:57:14;;;;;;;1999.90;999.90;;;12.50;99.90;;;;;;4992369;28;20930;-68
2022/05/04 07:59:40;;;;;;;1999.90;999.90;;;12.40;99.90;;;;;;4992317;28;20887;-68
2022/05/04 08:04:50;;;;;;;1999.90;999.90;;;12.30;99.90;;;;;;4992190;28;20224;-68
2022/05/04 08:07:17;;;;;;;1999.90;999.90;;;12.40;99.90;;;;;;4992186;28;20408;-68
2022/05/04 08:09:42;;;;;;;1999.90;999.90;;;12.50;99.90;;;;;;4992388;28;20420;-68
2022/05/04 08:12:11;;;;;;;1999.90;999.90;;;12.50;99.90;;;;;;4992236;28;20434;-68
2022/05/04 08:14:37;;;;;;;1999.90;999.90;;;12.50;99.90;;;;;;4992007;28;20276;-68
2022/05/04 08:17:03;;;;;;;1999.90;999.90;;;12.70;99.90;;;;;;4992122;28;20496;-68
2022/05/04 08:19:28;;;;;;;1999.90;999.90;;;12.80;99.90;;;;;;4992002;28;20919;-68
2022/05/04 08:21:54;;;;;;;1999.90;999.90;;;13.30;99.90;;;;;;4992310;28;20417;-68
2022/05/04 08:24:20;;;;;;;1999.90;999.90;;;13.60;99.90;;;;;;4991971;28;20174;-68
2022/05/04 08:26:46;;;;;;;1999.90;999.90;;;13.60;99.90;;;;;;4992180;28;20460;-68
2022/05/04 08:29:12;;;;;;;1999.90;999.90;;;13.70;99.90;;;;;;4992273;28;20491;-68
2022/05/04 08:31:41;;;;;;;1999.90;999.90;;;13.80;99.90;;;;;;4992149;28;20171;-68
2022/05/04 08:34:07;;;;;;;1999.90;999.90;;;13.90;99.90;;;;;;4991930;28;20170;-68
2022/05/04 08:36:37;;;;;;;1999.90;999.90;;;13.80;99.90;;;;;;4992124;28;20448;-68
2022/05/04 08:39:07;;;;;;;1999.90;999.90;;;13.70;99.90;;;;;;4992224;28;20436;-68
2022/05/04 08:41:38;;;;;;;1999.90;999.90;;;13.50;99.90;;;;;;4992242;28;20907;-68
2022/05/04 08:44:06;;;;;;;1999.90;999.90;;;13.30;99.90;;;;;;4993834;28;20402;-69
2022/05/04 08:46:34;;;;;;;1999.90;999.90;;;13.30;99.90;;;;;;4995232;28;20868;-68
2022/05/04 08:49:01;;;;;;;1999.90;999.90;;;13.30;99.90;;;;;;4995575;28;20978;-68
2022/05/04 08:51:28;;;;;;;1999.90;999.90;;;13.50;99.90;;;;;;4995681;28;21054;-68
2022/05/04 08:53:54;;;;;;;1999.90;999.90;;;13.70;99.90;;;;;;4995105;28;20482;-68
2022/05/04 08:56:19;;;;;;;1999.90;999.90;;;13.80;99.90;;;;;;4995195;28;20405;-68
2022/05/04 08:58:45;;;;;;;1999.90;999.90;;;13.90;99.90;;;;;;4995508;28;20173;-68
2022/05/04 09:01:12;;;;;;;1999.90;999.90;;;14.10;99.90;;;;;;4995752;28;20172;-69
2022/05/04 09:03:38;;;;;;;1999.90;999.90;;;14.20;99.90;;;;;;4995268;28;20197;-68
2022/05/04 09:06:03;;;;;;;1999.90;999.90;;;14.10;99.90;;;;;;4994774;28;20465;-68
2022/05/04 09:08:29;;;;;;;1999.90;999.90;;;14.10;99.90;;;;;;4995145;28;20209;-68
2022/05/04 09:10:54;;;;;;;1999.90;999.90;;;13.90;99.90;;;;;;4995057;28;20170;-68
2022/05/04 09:13:20;;;;;;;1999.90;999.90;;;13.90;99.90;;;;;;4995047;28;20245;-69
2022/05/04 09:15:46;;;;;;;1999.90;999.90;;;14.10;99.90;;;;;;4995104;28;20539;-69
2022/05/04 09:18:15;;;;;;;1999.90;999.90;;;14.40;99.90;;;;;;4995119;28;20181;-68
2022/05/04 09:20:49;;;;;;;1999.90;999.90;;;14.90;99.90;;;;;;4995074;28;20430;-68
2022/05/04 09:23:26;;;;;;;1999.90;999.90;;;15.00;99.90;;;;;;4994782;28;20456;-68
2022/05/04 09:26:00;;;;;;;1999.90;999.90;;;15.50;99.90;;;;;;4995678;28;20459;-69
2022/05/04 09:28:28;;;;;;;1999.90;999.90;;;16.10;99.90;;;;;;4995401;28;20811;-69
2022/05/04 09:30:59;;;;;;;1999.90;999.90;;;16.10;99.90;;;;;;4994871;28;20485;-69
2022/05/04 09:33:27;;;;;;;1999.90;999.90;;;16.00;99.90;;;;;;4994996;28;20437;-68
2022/05/04 09:35:57;;;;;;;1999.90;999.90;;;16.20;99.90;;;;;;4994377;28;20408;-67
2022/05/04 09:46:47;;;;;;;1999.90;999.90;;;16.10;99.90;;;;;;4994203;28;20984;-68
2022/05/04 09:49:15;;;;;;;1999.90;999.90;;;16.00;99.90;;;;;;4994217;28;20745;-68
2022/05/04 09:51:51;;;;;;;1999.90;999.90;;;16.00;99.90;;;;;;4994296;28;20431;-68
2022/05/04 09:54:19;;;;;;;1999.90;999.90;;;16.30;99.90;;;;;;4977368;22;20856;-73
2022/05/04 09:56:51;;;;;;;1999.90;999.90;;;16.30;99.90;;;;;;4933460;28;20784;-73
2022/05/04 09:59:19;;;;;;;1999.90;999.90;;;16.60;99.90;;;;;;4933381;28;20407;-73
2022/05/04 10:01:45;;;;;;;1999.90;999.90;;;17.10;99.90;;;;;;4933359;28;20414;-73
2022/05/04 10:04:11;;;;;;;1999.90;999.90;;;17.10;99.90;;;;;;4999078;28;21003;-73
2022/05/04 10:06:38;;;;;;;1999.90;999.90;;;17.10;99.90;;;;;;4933081;28;20533;-73
2022/05/04 10:09:05;;;;;;;1999.90;999.90;;;17.00;99.90;;;;;;4933292;28;20823;-73
2022/05/04 10:11:34;;;;;;;1999.90;999.90;;;17.10;99.90;;;;;;4933205;28;20472;-74
2022/05/04 10:14:09;;;;;;;1999.90;999.90;;;17.10;99.90;;;;;;4932830;28;20940;-74
2022/05/04 10:16:39;;;;;;;1999.90;999.90;;;17.20;99.90;;;;;;4933210;28;20418;-73
2022/05/04 10:19:07;;;;;;;1999.90;999.90;;;17.30;99.90;;;;;;4933002;28;20410;-73
2022/05/04 10:21:34;;;;;;;1999.90;999.90;;;17.30;99.90;;;;;;4933010;28;20422;-73
2022/05/04 10:24:03;;;;;;;1999.90;999.90;;;17.20;99.90;;;;;;4932632;28;20472;-73
2022/05/04 10:26:36;;;;;;;1999.90;999.90;;;17.10;99.90;;;;;;4932865;28;20463;-73
2022/05/04 10:32:42;;;;;;;1999.90;999.90;;;17.20;99.90;;;;;;4933012;29;20419;-73
2022/05/04 10:35:20;;;;;;;1999.90;999.90;;;17.50;99.90;;;;;;4932625;28;20928;-74
2022/05/04 10:37:58;;;;;;;1999.90;999.90;;;17.60;99.90;;;;;;4932800;28;20405;-74
2022/05/04 10:40:39;;;;;;;1999.90;999.90;;;17.30;99.90;;;;;;4932729;28;20470;-73
2022/05/04 10:43:09;;;;;;;1999.90;999.90;;;17.20;99.90;;;;;;4933129;28;20431;-73
2022/05/04 10:45:37;;;;;;;1999.90;999.90;;;17.30;99.90;;;;;;4997875;28;20502;-74
2022/05/04 10:48:15;;;;;;;1999.90;999.90;;;17.50;99.90;;;;;;4932567;28;20414;-73
2022/05/04 10:50:50;;;;;;;1999.90;999.90;;;17.70;99.90;;;;;;4932615;28;20392;-73
2022/05/04 10:53:43;;;;;;;1999.90;999.90;;;17.60;99.90;;;;;;4932388;28;20447;-74
2022/05/04 10:56:12;;;;;;;1999.90;999.90;;;17.80;99.90;;;;;;4933096;28;20434;-74
2022/05/04 10:58:55;;;;;;;1999.90;999.90;;;17.60;99.90;;;;;;4932530;28;20410;-74
2022/05/04 11:01:23;;;;;;;1999.90;999.90;;;17.60;99.90;;;;;;4932890;28;20497;-74
2022/05/04 11:04:10;;;;;;;1999.90;999.90;;;17.90;99.90;;;;;;4932263;28;20441;-74
2022/05/04 11:06:40;;;;;;;1999.90;999.90;;;18.40;99.90;;;;;;4997202;28;20467;-74
2022/05/04 11:09:07;;;;;;;1999.90;999.90;;;18.90;99.90;;;;;;4932349;28;20427;-74
2022/05/04 11:11:34;;;;;;;1999.90;999.90;;;19.20;99.90;;;;;;4932308;28;20417;-74
2022/05/04 11:13:59;;;;;;;1999.90;999.90;;;19.40;99.90;;;;;;4931887;28;20973;-74
2022/05/04 11:16:26;;;;;;;1999.90;999.90;;;19.30;99.90;;;;;;4932196;28;20423;-74
2022/05/04 11:18:52;;;;;;;1999.90;999.90;;;19.50;99.90;;;;;;4932313;28;20209;-74
2022/05/04 11:21:18;;;;;;;1999.90;999.90;;;19.80;99.90;;;;;;4932237;28;20419;-74
2022/05/04 11:23:52;;;;;;;1999.90;999.90;;;19.80;99.90;;;;;;4932045;28;20794;-74
2022/05/04 11:26:21;;;;;;;1999.90;999.90;;;19.90;99.90;;;;;;4931866;28;20455;-74
2022/05/04 11:28:48;;;;;;;1999.90;999.90;;;20.10;99.90;;;;;;4932042;28;20756;-74
2022/05/04 11:31:13;;;;;;;1999.90;999.90;;;20.20;99.90;;;;;;4931968;28;20412;-74
2022/05/04 11:33:43;;;;;;;1999.90;999.90;;;20.30;99.90;;;;;;4931882;28;20907;-74
2022/05/04 11:36:10;;;;;;;1999.90;999.90;;;20.60;99.90;;;;;;4931755;28;20672;-75
2022/05/04 11:38:35;;;;;;;1999.90;999.90;;;20.70;99.90;;;;;;4997599;28;20424;-75
2022/05/04 11:41:01;;;;;;;1999.90;999.90;;;20.70;99.90;;;;;;4931620;28;20415;-75
2022/05/04 11:43:29;;;;;;;1999.90;999.90;;;21.00;99.90;;;;;;4931741;28;20200;-75
2022/05/04 11:45:55;;;;;;;1999.90;999.90;;;21.60;99.90;;;;;;4930900;29;20668;-75
2022/05/04 11:48:22;;;;;;;1999.90;999.90;;;21.60;99.90;;;;;;4931621;28;20411;-75
2022/05/04 11:50:49;;;;;;;1999.90;999.90;;;20.50;99.90;;;;;;4931628;28;20801;-75
2022/05/04 11:53:15;;;;;;;1999.90;999.90;;;19.70;99.90;;;;;;4931836;28;20524;-74
2022/05/04 11:55:41;;;;;;;1999.90;999.90;;;19.20;99.90;;;;;;4931582;28;20843;-74
2022/05/04 11:58:10;;;;;;;1999.90;999.90;;;19.00;99.90;;;;;;4931826;28;20413;-74
2022/05/04 12:00:38;;;;;;;1999.90;999.90;;;19.20;99.90;;;;;;4931721;29;20411;-74
2022/05/04 12:03:05;;;;;;;1999.90;999.90;;;20.10;99.90;;;;;;4931674;28;20445;-74
2022/05/04 12:05:32;;;;;;;1999.90;999.90;;;21.30;99.90;;;;;;4931513;28;20454;-74
2022/05/04 12:07:59;;;;;;;1999.90;999.90;;;22.10;99.90;;;;;;4931628;28;20415;-74
2022/05/04 12:10:24;;;;;;;1999.90;999.90;;;22.50;97.60;;;;;;4931537;29;20410;-74
2022/05/04 12:12:50;;;;;;;1999.90;999.90;;;22.60;97.60;;;;;;4931342;28;20423;-74
2022/05/04 12:15:18;;;;;;;1999.90;999.90;;;23.20;93.50;;;;;;4931318;28;20176;-74
2022/05/04 12:17:45;;;;;;;1999.90;999.90;;;23.80;88.30;;;;;;4932896;29;20172;-74
2022/05/04 12:20:11;;;;;;;1999.90;999.90;;;23.90;83.40;;;;;;4934655;28;20412;-74
2022/05/04 12:22:36;;;;;;;1999.90;999.90;;;24.40;83.30;;;;;;4934682;28;20947;-74
2022/05/04 12:25:04;;;;;;;1999.90;999.90;;;24.70;72.70;;;;;;4934386;28;20175;-74
2022/05/04 12:27:38;;;;;;;1999.90;999.90;;;25.60;68.00;;;;;;4934590;28;20172;-74
2022/05/04 12:35:35;;;;;;;1999.90;999.90;;;25.20;49.70;;;;;;4934317;29;20453;-74
2022/05/04 12:38:03;;;;;;;1999.90;999.90;;;24.00;51.50;;;;;;4934531;28;20415;-74
2022/05/04 12:40:32;;;;;;;1999.90;999.90;;;24.00;53.60;;;;;;4934617;28;20382;-74
2022/05/04 12:43:00;;;;;;;1999.90;999.90;;;24.80;52.20;;;;;;4934201;29;20427;-74
2022/05/04 12:45:26;;;;;;;1999.90;999.90;;;25.20;52.30;;;;;;4934148;28;20479;-74
2022/05/04 12:47:56;;;;;;;1999.90;999.90;;;24.60;51.50;;;;;;4934390;28;20806;-74